LiveATC.Net - Listen to live air traffic control over the Internet!

ICAO: VNKT  IATA: KTM   Airport: Tribhuvan International Airport
City: Kathmandu
Country: Nepal   Continent: Asia
VNKT METAR Weather: VNKT 202150Z 00000KT 4000 BR FEW020 13/09 Q1016 NOSIG
VNKT Flight Activity (FlightAware)
VNKT Twr/App/Control
Feed Status: DOWN
Last heard on: 2018-03-13 04:51:02 (8 days 13 hours 45 minutes ago)
VNKT Twr/App/Control Audio Archives
Kathmandu Approach120.600
Kathmandu Control126.500
Kathmandu Tower118.100

NOTE: Airport closes from 19:00 UTC to 00:00 UTC


Unauthorized use prohibited. See Terms of Service

Find LiveATC Audio Streams

Airport/ARTCC Code

Frequency Search
(e.g., 124.400, 128.75)
Site-wide search

Browse LiveATC Feeds
LiveATC Coverage Map
Top 50 LiveATC Feeds
Bad Weather Areas

Offer a LiveATC Feed
Press Inquiries

LiveATC on iPhone
LiveATC on Android

Windows Phone
Windows 8/10

LiveATC Mobile
(Mobile browser)

ATC Audio Archives
Interesting Recordings

LiveATC Forums

Home Page
Make a Donation
Terms of Use
Privacy Policy

Canadian Air Freqs


FAA Airport Status
Nat'l Airspace Status
Arrival Demand Charts

Server Software By: